createdAt,value
2018-09-30T00:01:30.595Z,19.54
2018-09-30T00:03:56.949Z,19.54
2018-09-30T00:06:23.279Z,19.53
2018-09-30T00:08:49.667Z,19.51
2018-09-30T00:11:16.054Z,19.50
2018-09-30T00:13:42.479Z,19.47
2018-09-30T00:16:08.868Z,19.51
2018-09-30T00:18:35.279Z,19.51
2018-09-30T00:21:01.632Z,19.47
2018-09-30T00:23:28.025Z,19.45
2018-09-30T00:25:54.368Z,19.50
2018-09-30T00:28:20.737Z,19.45
2018-09-30T00:30:47.098Z,19.43
2018-09-30T00:33:13.516Z,19.44
2018-09-30T00:35:39.918Z,19.44
2018-09-30T00:38:06.356Z,19.42
2018-09-30T00:40:32.703Z,19.40
2018-09-30T00:42:59.080Z,19.40
2018-09-30T00:45:25.443Z,19.42
2018-09-30T00:47:51.773Z,19.40
2018-09-30T00:50:18.103Z,19.39
2018-09-30T00:52:44.536Z,19.39
2018-09-30T00:55:10.972Z,19.38
2018-09-30T00:57:37.304Z,19.36
2018-09-30T01:00:03.696Z,19.32
2018-09-30T01:02:30.075Z,19.31
2018-09-30T01:04:56.419Z,19.32
2018-09-30T01:07:22.754Z,19.33
2018-09-30T01:09:49.156Z,19.35
2018-09-30T01:12:15.514Z,19.31
2018-09-30T01:14:41.882Z,19.28
2018-09-30T01:17:08.267Z,19.26
2018-09-30T01:19:34.613Z,19.29
2018-09-30T01:22:01.016Z,19.26
2018-09-30T01:24:27.382Z,19.23
2018-09-30T01:26:53.851Z,19.25
2018-09-30T01:29:20.316Z,19.26
2018-09-30T01:31:46.683Z,19.25
2018-09-30T01:34:13.041Z,19.23
2018-09-30T01:36:39.404Z,19.22
2018-09-30T01:39:05.739Z,19.21
2018-09-30T01:41:32.104Z,19.18
2018-09-30T01:43:58.460Z,19.20
2018-09-30T01:46:24.849Z,19.18
2018-09-30T01:48:51.191Z,19.14
2018-09-30T01:51:17.523Z,19.15
2018-09-30T01:53:43.895Z,19.14
2018-09-30T01:56:10.227Z,19.14
2018-09-30T01:58:36.618Z,19.13
2018-09-30T02:01:02.960Z,19.10
2018-09-30T02:03:29.366Z,19.13
2018-09-30T02:05:55.749Z,19.11
2018-09-30T02:08:22.122Z,19.09
2018-09-30T02:10:48.519Z,19.08
2018-09-30T02:13:14.924Z,19.08
2018-09-30T02:15:41.304Z,19.08
2018-09-30T02:18:07.630Z,19.06
2018-09-30T02:20:33.983Z,19.06
2018-09-30T02:23:00.377Z,19.04
2018-09-30T02:25:26.769Z,19.01
2018-09-30T02:27:53.103Z,19.04
2018-09-30T02:30:19.437Z,19.02
2018-09-30T02:32:45.844Z,19.02
2018-09-30T02:35:12.247Z,19.01
2018-09-30T02:37:38.580Z,19.01
2018-09-30T02:40:04.915Z,18.99
2018-09-30T02:42:31.258Z,18.97
2018-09-30T02:44:57.643Z,18.97
2018-09-30T02:47:24.107Z,18.96
2018-09-30T02:49:50.442Z,18.95
2018-09-30T02:52:16.816Z,18.94
2018-09-30T02:54:43.198Z,18.94
2018-09-30T02:57:09.556Z,18.93
2018-09-30T02:59:35.961Z,18.91
2018-09-30T03:02:02.327Z,18.93
2018-09-30T03:04:28.699Z,18.89
2018-09-30T03:06:55.049Z,18.89
2018-09-30T03:09:21.461Z,18.88
2018-09-30T03:11:47.850Z,18.88
2018-09-30T03:14:14.193Z,18.87
2018-09-30T03:16:40.547Z,18.87
2018-09-30T03:19:06.859Z,18.85
2018-09-30T03:21:33.191Z,18.85
2018-09-30T03:23:59.584Z,18.85
2018-09-30T03:26:25.911Z,18.82
2018-09-30T03:28:52.313Z,18.82
2018-09-30T03:31:18.668Z,18.81
2018-09-30T03:33:45.017Z,18.80
2018-09-30T03:36:11.403Z,18.80
2018-09-30T03:38:37.806Z,18.80
2018-09-30T03:41:04.252Z,18.78
2018-09-30T03:43:30.644Z,18.76
2018-09-30T03:45:57.050Z,18.78
2018-09-30T03:48:23.415Z,18.76
2018-09-30T03:50:49.750Z,18.77
2018-09-30T03:53:16.136Z,18.73
2018-09-30T03:55:42.477Z,18.76
2018-09-30T03:58:08.884Z,18.72
2018-09-30T04:00:35.229Z,18.72
2018-09-30T04:03:01.572Z,18.70
2018-09-30T04:05:27.968Z,18.71
2018-09-30T04:07:54.311Z,18.70
2018-09-30T04:10:20.724Z,18.69
2018-09-30T04:12:47.077Z,18.67
2018-09-30T04:15:13.457Z,18.66
2018-09-30T04:17:39.798Z,18.66
2018-09-30T04:20:06.259Z,18.64
2018-09-30T04:22:32.604Z,18.64
2018-09-30T04:24:58.971Z,18.63
2018-09-30T04:27:25.360Z,18.62
2018-09-30T04:29:51.707Z,18.62
2018-09-30T04:32:18.061Z,18.62
2018-09-30T04:34:44.447Z,18.61
2018-09-30T04:37:10.801Z,18.61
2018-09-30T04:39:37.170Z,18.59
2018-09-30T04:42:03.552Z,18.58
2018-09-30T04:44:29.941Z,18.58
2018-09-30T04:46:56.325Z,18.58
2018-09-30T04:49:22.669Z,18.55
2018-09-30T04:51:49.004Z,18.57
2018-09-30T04:54:15.344Z,18.54
2018-09-30T04:56:41.726Z,18.53
2018-09-30T04:59:08.052Z,18.54
2018-09-30T05:01:34.412Z,18.54
2018-09-30T05:04:00.747Z,18.55
2018-09-30T05:06:27.082Z,18.53
2018-09-30T05:08:53.461Z,18.54
2018-09-30T05:11:19.832Z,18.55
2018-09-30T05:13:46.250Z,18.55
2018-09-30T05:16:12.638Z,18.58
2018-09-30T05:18:38.960Z,18.57
2018-09-30T05:21:05.292Z,18.63
2018-09-30T05:23:31.616Z,18.65
2018-09-30T05:25:57.945Z,18.67
2018-09-30T05:28:24.296Z,18.67
2018-09-30T05:30:50.688Z,18.72
2018-09-30T05:33:17.051Z,18.76
2018-09-30T05:35:43.388Z,18.76
2018-09-30T05:38:09.746Z,18.76
2018-09-30T05:40:36.147Z,18.72
2018-09-30T05:43:02.480Z,18.72
2018-09-30T05:45:28.891Z,18.74
2018-09-30T05:47:55.291Z,18.73
2018-09-30T05:50:21.604Z,18.78
2018-09-30T05:52:47.957Z,18.83
2018-09-30T05:55:14.304Z,18.87
2018-09-30T05:57:40.839Z,18.86
2018-09-30T06:00:07.192Z,18.95
2018-09-30T06:02:33.556Z,19.00
2018-09-30T06:04:59.891Z,19.04
2018-09-30T06:07:26.358Z,19.09
2018-09-30T06:09:52.752Z,19.12
2018-09-30T06:12:19.111Z,19.11
2018-09-30T06:14:45.460Z,19.13
2018-09-30T06:17:11.810Z,19.15
2018-09-30T06:19:38.179Z,19.17
2018-09-30T06:22:04.574Z,19.21
2018-09-30T06:24:31.074Z,19.23
2018-09-30T06:26:57.421Z,19.26
2018-09-30T06:29:23.809Z,19.31
2018-09-30T06:31:50.804Z,19.32
2018-09-30T06:34:17.173Z,19.35
2018-09-30T06:36:43.537Z,19.36
2018-09-30T06:39:09.937Z,19.38
2018-09-30T06:41:36.286Z,19.37
2018-09-30T06:44:02.702Z,19.36
2018-09-30T06:46:29.100Z,19.37
2018-09-30T06:48:55.548Z,19.33
2018-09-30T06:51:21.944Z,19.36
2018-09-30T06:53:48.365Z,19.36
2018-09-30T06:56:14.716Z,19.33
2018-09-30T06:58:41.101Z,19.33
2018-09-30T07:01:07.563Z,19.35
2018-09-30T07:03:34.102Z,19.35
2018-09-30T07:06:00.519Z,19.33
2018-09-30T07:08:26.879Z,19.33
2018-09-30T07:10:53.287Z,19.33
2018-09-30T07:13:19.628Z,19.32
2018-09-30T07:15:46.002Z,19.33
2018-09-30T07:18:12.361Z,19.33
2018-09-30T07:20:38.834Z,19.35
2018-09-30T07:23:05.200Z,19.36
2018-09-30T07:25:31.563Z,19.35
2018-09-30T07:27:58.021Z,19.37
2018-09-30T07:30:24.447Z,19.36
2018-09-30T07:32:50.858Z,19.33
2018-09-30T07:35:17.197Z,19.36
2018-09-30T07:37:43.637Z,19.35
2018-09-30T07:40:09.968Z,19.33
2018-09-30T07:42:36.317Z,19.37
2018-09-30T07:45:02.844Z,19.38
2018-09-30T07:47:29.268Z,19.39
2018-09-30T07:49:55.622Z,19.40
2018-09-30T07:52:22.047Z,19.40
2018-09-30T07:54:48.476Z,19.40
2018-09-30T07:57:14.907Z,19.40
2018-09-30T07:59:41.288Z,19.42
2018-09-30T08:02:07.728Z,19.42
2018-09-30T08:04:34.057Z,19.44
2018-09-30T08:07:00.437Z,19.43
2018-09-30T08:09:26.954Z,19.44
2018-09-30T08:11:53.458Z,19.43
2018-09-30T08:14:19.788Z,19.43
2018-09-30T08:16:46.180Z,19.46
2018-09-30T08:19:12.579Z,19.45
2018-09-30T08:21:39.013Z,19.45
2018-09-30T08:24:05.434Z,19.47
2018-09-30T08:26:31.747Z,19.48
2018-09-30T08:28:58.203Z,19.47
2018-09-30T08:31:24.542Z,19.50
2018-09-30T08:33:50.872Z,19.52
2018-09-30T08:36:17.227Z,19.50
2018-09-30T08:38:43.625Z,19.51
2018-09-30T08:41:10.011Z,19.52
2018-09-30T08:43:36.415Z,19.50
2018-09-30T08:46:02.756Z,19.51
2018-09-30T08:48:29.132Z,19.52
2018-09-30T08:50:55.534Z,19.51
2018-09-30T08:53:21.926Z,19.50
2018-09-30T08:55:48.341Z,19.54
2018-09-30T08:58:14.661Z,19.55
2018-09-30T09:00:41.128Z,19.55
2018-09-30T09:03:07.604Z,19.55
2018-09-30T09:05:33.909Z,19.55
2018-09-30T09:08:00.259Z,19.56
2018-09-30T09:10:26.658Z,19.59
2018-09-30T09:12:53.005Z,19.57
2018-09-30T09:15:19.360Z,19.59
2018-09-30T09:17:45.768Z,19.59
2018-09-30T09:20:12.174Z,19.60
2018-09-30T09:22:38.506Z,19.61
2018-09-30T09:25:04.909Z,19.62
2018-09-30T09:27:31.312Z,19.63
2018-09-30T09:29:57.669Z,19.63
2018-09-30T09:32:24.063Z,19.62
2018-09-30T09:34:50.467Z,19.66
2018-09-30T09:37:17.008Z,19.65
2018-09-30T09:39:43.989Z,19.66
2018-09-30T09:42:10.332Z,19.66
2018-09-30T09:44:36.759Z,19.68
2018-09-30T09:47:03.196Z,19.68
2018-09-30T09:49:29.548Z,19.69
2018-09-30T09:51:55.877Z,19.70
2018-09-30T09:54:22.222Z,19.68
2018-09-30T09:56:48.588Z,19.71
2018-09-30T09:59:15.039Z,19.70
2018-09-30T10:01:41.366Z,19.71
2018-09-30T10:04:07.704Z,19.72
2018-09-30T10:06:34.092Z,19.71
2018-09-30T10:09:00.444Z,19.68
2018-09-30T10:11:26.858Z,19.71
2018-09-30T10:13:53.414Z,19.72
2018-09-30T10:16:19.731Z,19.68
2018-09-30T10:18:46.142Z,19.69
2018-09-30T10:21:12.472Z,19.69
2018-09-30T10:23:38.856Z,19.68
2018-09-30T10:26:05.300Z,19.67
2018-09-30T10:28:31.698Z,19.68
2018-09-30T10:30:58.064Z,19.70
2018-09-30T10:33:24.486Z,19.66
2018-09-30T10:35:50.962Z,19.69
2018-09-30T10:38:17.372Z,19.69
2018-09-30T10:40:43.759Z,19.67
2018-09-30T10:43:10.159Z,19.70
2018-09-30T10:45:36.484Z,19.67
2018-09-30T10:48:02.898Z,19.69
2018-09-30T10:50:29.236Z,19.67
2018-09-30T10:52:55.652Z,19.67
2018-09-30T10:55:22.100Z,19.65
2018-09-30T10:57:48.408Z,19.65
2018-09-30T11:00:14.808Z,19.63
2018-09-30T11:02:41.219Z,19.61
2018-09-30T11:05:07.578Z,19.57
2018-09-30T11:07:33.972Z,19.62
2018-09-30T11:10:00.399Z,19.57
2018-09-30T11:12:26.776Z,19.61
2018-09-30T11:14:53.166Z,19.59
2018-09-30T11:17:19.536Z,19.58
2018-09-30T11:19:45.867Z,19.58
2018-09-30T11:22:12.196Z,19.58
2018-09-30T11:24:38.589Z,19.56
2018-09-30T11:27:04.962Z,19.58
2018-09-30T11:29:31.323Z,19.54
2018-09-30T11:31:57.682Z,19.56
2018-09-30T11:34:24.050Z,19.56
2018-09-30T11:36:50.380Z,19.55
2018-09-30T11:39:16.765Z,19.55
2018-09-30T11:41:43.107Z,19.55
2018-09-30T11:44:09.476Z,19.56
2018-09-30T11:46:35.812Z,19.54
2018-09-30T11:49:02.208Z,19.55
2018-09-30T11:51:28.598Z,19.54
2018-09-30T11:53:54.964Z,19.53
2018-09-30T11:56:21.316Z,19.53
2018-09-30T11:58:47.664Z,19.52
2018-09-30T12:01:14.144Z,19.52
2018-09-30T12:03:40.496Z,19.53
2018-09-30T12:06:06.824Z,19.51
2018-09-30T12:08:33.165Z,19.50
2018-09-30T12:10:59.561Z,19.50
2018-09-30T12:13:25.882Z,19.48
2018-09-30T12:15:52.221Z,19.48
2018-09-30T12:18:18.572Z,19.50
2018-09-30T12:20:44.924Z,19.48
2018-09-30T12:23:11.329Z,19.48
2018-09-30T12:25:37.676Z,19.47
2018-09-30T12:28:04.040Z,19.47
2018-09-30T12:30:30.449Z,19.46
2018-09-30T12:32:56.764Z,19.47
2018-09-30T12:35:23.191Z,19.45
2018-09-30T12:37:49.538Z,19.45
2018-09-30T12:40:15.897Z,19.46
2018-09-30T12:42:42.264Z,19.46
2018-09-30T12:45:08.657Z,19.44
2018-09-30T12:47:35.123Z,19.44
2018-09-30T12:50:01.500Z,19.46
2018-09-30T12:52:27.856Z,19.47
2018-09-30T12:54:54.223Z,19.46
2018-09-30T12:57:20.565Z,19.45
2018-09-30T12:59:46.884Z,19.47
2018-09-30T13:02:13.272Z,19.45
2018-09-30T13:04:39.611Z,19.43
2018-09-30T13:07:05.948Z,19.41
2018-09-30T13:09:32.299Z,19.44
2018-09-30T13:11:58.691Z,19.41
2018-09-30T13:14:25.073Z,19.42
2018-09-30T13:16:51.468Z,19.45
2018-09-30T13:19:17.860Z,19.42
2018-09-30T13:21:44.233Z,19.42
2018-09-30T13:24:10.633Z,19.43
2018-09-30T13:26:37.040Z,19.43
2018-09-30T13:29:03.419Z,19.42
2018-09-30T13:31:29.808Z,19.43
2018-09-30T13:33:56.162Z,19.41
2018-09-30T13:36:22.587Z,19.42
2018-09-30T13:38:48.958Z,19.43
2018-09-30T13:41:15.393Z,19.44
2018-09-30T13:43:41.678Z,19.43
2018-09-30T13:46:08.080Z,19.41
2018-09-30T13:48:34.411Z,19.40
2018-09-30T13:51:00.805Z,19.42
2018-09-30T13:53:27.136Z,19.42
2018-09-30T13:55:53.474Z,19.39
2018-09-30T13:58:19.900Z,19.41
2018-09-30T14:00:46.234Z,19.41
2018-09-30T14:03:12.635Z,19.39
2018-09-30T14:05:39.041Z,19.39
2018-09-30T14:08:05.388Z,19.40
2018-09-30T14:10:31.717Z,19.39
2018-09-30T14:12:58.065Z,19.39
2018-09-30T14:15:24.565Z,19.39
2018-09-30T14:17:50.997Z,19.38
2018-09-30T14:20:17.368Z,19.40
2018-09-30T14:22:43.724Z,19.39
2018-09-30T14:25:10.058Z,19.39
2018-09-30T14:27:36.532Z,19.39
2018-09-30T14:30:02.942Z,19.39
2018-09-30T14:32:29.320Z,19.38
2018-09-30T14:34:55.690Z,19.38
2018-09-30T14:37:22.043Z,19.35
2018-09-30T14:39:48.385Z,19.35
2018-09-30T14:42:14.773Z,19.35
2018-09-30T14:44:41.151Z,19.36
2018-09-30T14:47:07.488Z,19.32
2018-09-30T14:49:33.905Z,19.35
2018-09-30T14:52:00.277Z,19.32
2018-09-30T14:54:26.768Z,19.30
2018-09-30T14:56:53.241Z,19.32
2018-09-30T14:59:19.576Z,19.31
2018-09-30T15:01:45.904Z,19.30
2018-09-30T15:04:12.271Z,19.32
2018-09-30T15:06:38.633Z,19.30
2018-09-30T15:09:05.069Z,19.28
2018-09-30T15:11:31.412Z,19.31
2018-09-30T15:13:57.766Z,19.28
2018-09-30T15:16:24.101Z,19.28
2018-09-30T15:18:50.459Z,19.28
2018-09-30T15:21:16.792Z,19.28
2018-09-30T15:23:43.142Z,19.25
2018-09-30T15:26:09.559Z,19.24
2018-09-30T15:28:35.883Z,19.23
2018-09-30T15:31:02.213Z,19.24
2018-09-30T15:33:28.664Z,19.25
2018-09-30T15:35:55.105Z,19.23
2018-09-30T15:38:21.448Z,19.24
2018-09-30T15:40:47.873Z,19.20
2018-09-30T15:43:14.222Z,19.20
2018-09-30T15:45:40.611Z,19.18
2018-09-30T15:48:06.999Z,19.16
2018-09-30T15:50:33.440Z,19.20
2018-09-30T15:52:59.770Z,19.22
2018-09-30T15:55:26.096Z,19.17
2018-09-30T15:57:52.433Z,19.14
2018-09-30T16:00:19.143Z,19.14
2018-09-30T16:02:45.613Z,19.15
2018-09-30T16:05:11.966Z,19.12
2018-09-30T16:07:38.295Z,19.11
2018-09-30T16:10:04.629Z,19.12
2018-09-30T16:12:30.992Z,19.11
2018-09-30T16:14:57.321Z,19.10
2018-09-30T16:17:23.697Z,19.09
2018-09-30T16:19:50.050Z,19.08
2018-09-30T16:22:16.474Z,19.09
2018-09-30T16:24:42.812Z,19.08
2018-09-30T16:27:09.186Z,19.06
2018-09-30T16:29:35.629Z,19.04
2018-09-30T16:32:01.973Z,19.04
2018-09-30T16:34:28.442Z,19.06
2018-09-30T16:36:54.853Z,19.02
2018-09-30T16:39:21.204Z,19.03
2018-09-30T16:41:47.603Z,19.02
2018-09-30T16:44:13.931Z,19.01
2018-09-30T16:46:40.308Z,19.00
2018-09-30T16:49:06.636Z,19.00
2018-09-30T16:51:32.964Z,18.99
2018-09-30T16:53:59.475Z,18.96
2018-09-30T16:56:25.819Z,18.98
2018-09-30T16:58:52.207Z,18.98
2018-09-30T17:01:18.553Z,18.98
2018-09-30T17:03:44.923Z,18.95
2018-09-30T17:06:11.317Z,18.96
2018-09-30T17:08:37.788Z,18.94
2018-09-30T17:11:04.148Z,18.93
2018-09-30T17:13:30.480Z,18.92
2018-09-30T17:15:57.008Z,18.93
2018-09-30T17:18:23.650Z,18.93
2018-09-30T17:20:50.008Z,18.91
2018-09-30T17:23:16.434Z,18.89
2018-09-30T17:25:42.814Z,18.89
2018-09-30T17:28:09.266Z,18.88
2018-09-30T17:30:35.585Z,18.87
2018-09-30T17:33:01.924Z,18.91
2018-09-30T17:35:28.260Z,18.87
2018-09-30T17:37:54.634Z,18.87
2018-09-30T17:40:21.046Z,18.87
2018-09-30T17:42:47.404Z,18.85
2018-09-30T17:45:13.744Z,18.86
2018-09-30T17:47:40.156Z,18.84
2018-09-30T17:50:06.509Z,18.84
2018-09-30T17:52:32.913Z,18.84
2018-09-30T17:54:59.252Z,18.84
2018-09-30T17:57:25.591Z,18.82
2018-09-30T17:59:51.976Z,18.83
2018-09-30T18:02:18.355Z,18.82
2018-09-30T18:04:44.700Z,18.81
2018-09-30T18:07:11.136Z,18.82
2018-09-30T18:09:37.498Z,18.80
2018-09-30T18:12:03.830Z,18.80
2018-09-30T18:14:30.228Z,18.80
2018-09-30T18:16:56.632Z,18.79
2018-09-30T18:19:23.027Z,18.78
2018-09-30T18:21:49.372Z,18.80
2018-09-30T18:24:15.789Z,18.80
2018-09-30T18:26:42.152Z,18.78
2018-09-30T18:29:08.587Z,18.76
2018-09-30T18:31:34.979Z,18.77
2018-09-30T18:34:01.383Z,18.77
2018-09-30T18:36:27.750Z,18.76
2018-09-30T18:38:54.163Z,18.77
2018-09-30T18:41:20.489Z,18.73
2018-09-30T18:43:46.880Z,18.76
2018-09-30T18:46:13.275Z,18.74
2018-09-30T18:48:39.684Z,18.73
2018-09-30T18:51:06.034Z,18.72
2018-09-30T18:53:32.378Z,18.72
2018-09-30T18:55:58.918Z,18.71
2018-09-30T18:58:25.259Z,18.73
2018-09-30T19:00:51.702Z,18.70
2018-09-30T19:03:18.131Z,18.71
2018-09-30T19:05:44.461Z,18.72
2018-09-30T19:08:10.851Z,18.70
2018-09-30T19:10:37.186Z,18.69
2018-09-30T19:13:03.589Z,18.68
2018-09-30T19:15:30.052Z,18.68
2018-09-30T19:17:56.530Z,18.69
2018-09-30T19:20:23.066Z,18.70
2018-09-30T19:22:49.492Z,18.68
2018-09-30T19:25:15.881Z,18.66
2018-09-30T19:27:42.246Z,18.66
2018-09-30T19:30:08.630Z,18.64
2018-09-30T19:32:35.031Z,18.64
2018-09-30T19:35:01.427Z,18.66
2018-09-30T19:37:27.777Z,18.65
2018-09-30T19:39:54.112Z,18.65
2018-09-30T19:42:20.440Z,18.64
2018-09-30T19:44:46.872Z,18.64
2018-09-30T19:47:13.748Z,18.63
2018-09-30T19:49:40.109Z,18.63
2018-09-30T19:52:06.541Z,18.61
2018-09-30T19:54:32.924Z,18.64
2018-09-30T19:56:59.368Z,18.61
2018-09-30T19:59:25.719Z,18.61
2018-09-30T20:01:52.108Z,18.62
2018-09-30T20:04:18.506Z,18.63
2018-09-30T20:06:44.908Z,18.62
2018-09-30T20:09:11.409Z,18.61
2018-09-30T20:11:37.743Z,18.61
2018-09-30T20:14:04.177Z,18.59
2018-09-30T20:16:30.605Z,18.61
2018-09-30T20:18:57.006Z,18.59
2018-09-30T20:21:23.358Z,18.57
2018-09-30T20:23:49.793Z,18.58
2018-09-30T20:26:16.153Z,18.55
2018-09-30T20:28:42.666Z,18.57
2018-09-30T20:31:08.958Z,18.58
2018-09-30T20:33:35.342Z,18.56
2018-09-30T20:36:01.804Z,18.55
2018-09-30T20:38:28.236Z,18.54
2018-09-30T20:40:54.591Z,18.54
2018-09-30T20:43:21.005Z,18.57
2018-09-30T20:45:47.343Z,18.55
2018-09-30T20:48:13.768Z,18.54
2018-09-30T20:50:40.096Z,18.56
2018-09-30T20:53:06.454Z,18.56
2018-09-30T20:55:32.940Z,18.54
2018-09-30T20:57:59.344Z,18.54
2018-09-30T21:00:25.724Z,18.54
2018-09-30T21:02:52.084Z,18.54
2018-09-30T21:05:18.525Z,18.53
2018-09-30T21:07:44.891Z,18.54
2018-09-30T21:10:11.238Z,18.54
2018-09-30T21:12:37.612Z,18.54
2018-09-30T21:15:03.955Z,18.54
2018-09-30T21:17:30.326Z,18.52
2018-09-30T21:19:56.661Z,18.51
2018-09-30T21:22:23.058Z,18.50
2018-09-30T21:24:49.445Z,18.51
2018-09-30T21:27:15.871Z,18.50
2018-09-30T21:29:42.223Z,18.51
2018-09-30T21:32:08.639Z,18.50
2018-09-30T21:34:34.987Z,18.50
2018-09-30T21:37:01.457Z,18.49
2018-09-30T21:39:27.800Z,18.49
2018-09-30T21:41:54.259Z,18.48
2018-09-30T21:44:20.625Z,18.49
2018-09-30T21:46:46.991Z,18.49
2018-09-30T21:49:13.328Z,18.48
2018-09-30T21:51:39.722Z,18.48
2018-09-30T21:54:06.086Z,18.48
2018-09-30T21:56:32.447Z,18.47
2018-09-30T21:58:58.854Z,18.47
2018-09-30T22:01:25.283Z,18.44
2018-09-30T22:03:51.580Z,18.46
2018-09-30T22:06:17.972Z,18.46
2018-09-30T22:08:44.337Z,18.44
2018-09-30T22:11:10.809Z,18.46
2018-09-30T22:13:37.128Z,18.46
2018-09-30T22:16:03.526Z,18.44
2018-09-30T22:18:29.908Z,18.47
2018-09-30T22:20:56.228Z,18.43
2018-09-30T22:23:22.632Z,18.44
2018-09-30T22:25:49.021Z,18.43
2018-09-30T22:28:15.399Z,18.43
2018-09-30T22:30:41.819Z,18.41
2018-09-30T22:33:08.217Z,18.41
2018-09-30T22:35:34.606Z,18.42
2018-09-30T22:38:00.996Z,18.41
2018-09-30T22:40:27.471Z,18.41
2018-09-30T22:42:53.781Z,18.40
2018-09-30T22:45:20.170Z,18.39
2018-09-30T22:47:46.580Z,18.42
2018-09-30T22:50:13.084Z,18.39
2018-09-30T22:52:39.465Z,18.40
2018-09-30T22:55:05.808Z,18.40
2018-09-30T22:57:32.174Z,18.40
2018-09-30T22:59:58.512Z,18.38
2018-09-30T23:02:24.896Z,18.38
2018-09-30T23:04:51.252Z,18.38
2018-09-30T23:07:17.766Z,18.38
2018-09-30T23:09:44.134Z,18.37
2018-09-30T23:12:10.469Z,18.36
2018-09-30T23:14:36.869Z,18.36
2018-09-30T23:17:03.201Z,18.38
2018-09-30T23:19:29.570Z,18.36
2018-09-30T23:21:55.904Z,18.37
2018-09-30T23:24:22.292Z,18.36
2018-09-30T23:26:48.684Z,18.36
2018-09-30T23:29:15.141Z,18.35
2018-09-30T23:31:41.495Z,18.38
2018-09-30T23:34:07.908Z,18.34
2018-09-30T23:36:34.264Z,18.33
2018-09-30T23:39:00.664Z,18.35
2018-09-30T23:41:27.004Z,18.34
2018-09-30T23:43:53.332Z,18.34
2018-09-30T23:46:19.690Z,18.34
2018-09-30T23:48:46.089Z,18.34
2018-09-30T23:51:12.676Z,18.33
2018-09-30T23:53:39.061Z,18.32
2018-09-30T23:56:05.443Z,18.32
2018-09-30T23:58:31.816Z,18.33
